sensor_id;sensor_type;location;lat;lon;timestamp;pressure;altitude;pressure_sealevel;temperature;humidity
8069;BME280;4077;43.702;24.896;2023-03-20T00:02:17;99778.03;;;3.42;100.00
8069;BME280;4077;43.702;24.896;2023-03-20T00:04:43;99777.75;;;3.36;100.00
8069;BME280;4077;43.702;24.896;2023-03-20T00:07:08;99770.91;;;3.35;100.00
8069;BME280;4077;43.702;24.896;2023-03-20T00:09:37;99777.34;;;3.27;100.00
8069;BME280;4077;43.702;24.896;2023-03-20T00:12:03;99774.22;;;3.33;100.00
8069;BME280;4077;43.702;24.896;2023-03-20T00:14:29;99767.31;;;3.30;100.00
8069;BME280;4077;43.702;24.896;2023-03-20T00:16:55;99769.13;;;3.33;100.00
8069;BME280;4077;43.702;24.896;2023-03-20T00:19:23;99764.13;;;3.36;100.00
8069;BME280;4077;43.702;24.896;2023-03-20T00:21:49;99771.47;;;3.47;100.00
8069;BME280;4077;43.702;24.896;2023-03-20T00:24:15;99761.53;;;3.53;100.00
8069;BME280;4077;43.702;24.896;2023-03-20T00:26:42;99768.44;;;3.56;100.00
8069;BME280;4077;43.702;24.896;2023-03-20T00:29:14;99758.56;;;3.64;100.00
8069;BME280;4077;43.702;24.896;2023-03-20T00:31:42;99755.41;;;3.50;100.00
8069;BME280;4077;43.702;24.896;2023-03-20T00:34:13;99753.94;;;3.55;100.00
8069;BME280;4077;43.702;24.896;2023-03-20T00:36:39;99758.38;;;3.40;100.00
8069;BME280;4077;43.702;24.896;2023-03-20T00:39:05;99753.00;;;3.34;100.00
8069;BME280;4077;43.702;24.896;2023-03-20T00:47:02;99748.44;;;3.26;100.00
8069;BME280;4077;43.702;24.896;2023-03-20T00:49:31;99743.22;;;3.23;100.00
8069;BME280;4077;43.702;24.896;2023-03-20T00:51:59;99736.63;;;3.09;100.00
8069;BME280;4077;43.702;24.896;2023-03-20T00:54:25;99730.16;;;2.98;100.00
8069;BME280;4077;43.702;24.896;2023-03-20T00:57:05;99734.72;;;3.05;100.00
8069;BME280;4077;43.702;24.896;2023-03-20T00:59:37;99724.59;;;3.07;100.00
8069;BME280;4077;43.702;24.896;2023-03-20T01:02:04;99722.50;;;2.98;100.00
8069;BME280;4077;43.702;24.896;2023-03-20T01:04:36;99722.72;;;3.03;100.00
8069;BME280;4077;43.702;24.896;2023-03-20T01:07:02;99720.31;;;2.88;100.00
8069;BME280;4077;43.702;24.896;2023-03-20T01:09:28;99710.28;;;2.91;100.00
8069;BME280;4077;43.702;24.896;2023-03-20T01:11:53;99720.47;;;2.91;100.00
8069;BME280;4077;43.702;24.896;2023-03-20T01:14:19;99706.91;;;2.92;100.00
8069;BME280;4077;43.702;24.896;2023-03-20T01:16:45;99712.94;;;2.94;100.00
8069;BME280;4077;43.702;24.896;2023-03-20T01:19:14;99718.56;;;3.05;100.00
8069;BME280;4077;43.702;24.896;2023-03-20T01:21:40;99713.13;;;3.16;100.00
8069;BME280;4077;43.702;24.896;2023-03-20T01:24:06;99719.09;;;3.17;100.00
8069;BME280;4077;43.702;24.896;2023-03-20T01:26:37;99717.81;;;3.26;100.00
8069;BME280;4077;43.702;24.896;2023-03-20T01:29:04;99726.72;;;3.36;100.00
8069;BME280;4077;43.702;24.896;2023-03-20T01:31:37;99706.25;;;3.35;100.00
8069;BME280;4077;43.702;24.896;2023-03-20T01:34:02;99715.66;;;3.36;100.00
8069;BME280;4077;43.702;24.896;2023-03-20T01:36:28;99706.69;;;3.24;100.00
8069;BME280;4077;43.702;24.896;2023-03-20T01:38:56;99712.44;;;3.20;100.00
8069;BME280;4077;43.702;24.896;2023-03-20T01:41:24;99717.69;;;3.23;100.00
8069;BME280;4077;43.702;24.896;2023-03-20T01:43:51;99715.41;;;3.29;100.00
8069;BME280;4077;43.702;24.896;2023-03-20T01:53:42;99727.50;;;3.34;100.00
8069;BME280;4077;43.702;24.896;2023-03-20T01:56:11;99722.25;;;3.31;100.00
8069;BME280;4077;43.702;24.896;2023-03-20T01:58:43;99724.25;;;3.18;100.00
8069;BME280;4077;43.702;24.896;2023-03-20T02:01:12;99735.00;;;3.11;100.00
8069;BME280;4077;43.702;24.896;2023-03-20T02:03:40;99734.72;;;3.05;100.00
8069;BME280;4077;43.702;24.896;2023-03-20T02:06:07;99732.13;;;3.04;100.00
8069;BME280;4077;43.702;24.896;2023-03-20T02:08:56;99732.81;;;3.01;100.00
8069;BME280;4077;43.702;24.896;2023-03-20T02:11:22;99732.00;;;2.83;100.00
8069;BME280;4077;43.702;24.896;2023-03-20T02:13:54;99730.91;;;2.78;100.00
8069;BME280;4077;43.702;24.896;2023-03-20T02:16:21;99732.59;;;2.59;100.00
8069;BME280;4077;43.702;24.896;2023-03-20T02:18:49;99725.63;;;2.55;100.00
8069;BME280;4077;43.702;24.896;2023-03-20T02:24:39;99719.78;;;2.40;100.00
8069;BME280;4077;43.702;24.896;2023-03-20T02:30:30;99711.50;;;2.26;100.00
8069;BME280;4077;43.702;24.896;2023-03-20T02:33:40;99710.28;;;2.36;100.00
8069;BME280;4077;43.702;24.896;2023-03-20T02:39:01;99705.81;;;2.32;100.00
8069;BME280;4077;43.702;24.896;2023-03-20T02:44:39;99696.09;;;2.23;100.00
8069;BME280;4077;43.702;24.896;2023-03-20T02:47:35;99705.41;;;2.23;100.00
8069;BME280;4077;43.702;24.896;2023-03-20T02:53:08;99695.66;;;2.14;100.00
8069;BME280;4077;43.702;24.896;2023-03-20T02:55:56;99688.22;;;2.18;100.00
8069;BME280;4077;43.702;24.896;2023-03-20T02:58:28;99699.84;;;2.31;100.00
8069;BME280;4077;43.702;24.896;2023-03-20T03:01:18;99695.34;;;2.26;100.00
8069;BME280;4077;43.702;24.896;2023-03-20T03:03:57;99708.31;;;2.30;100.00
8069;BME280;4077;43.702;24.896;2023-03-20T03:06:32;99700.59;;;2.29;100.00
8069;BME280;4077;43.702;24.896;2023-03-20T03:11:42;99692.16;;;2.30;100.00
8069;BME280;4077;43.702;24.896;2023-03-20T03:14:17;99694.47;;;2.25;100.00
8069;BME280;4077;43.702;24.896;2023-03-20T03:16:47;99694.28;;;2.21;100.00
8069;BME280;4077;43.702;24.896;2023-03-20T03:19:18;99693.41;;;2.20;100.00
8069;BME280;4077;43.702;24.896;2023-03-20T03:21:46;99707.72;;;2.36;100.00
8069;BME280;4077;43.702;24.896;2023-03-20T03:24:34;99712.31;;;2.43;100.00
8069;BME280;4077;43.702;24.896;2023-03-20T03:27:02;99715.59;;;2.40;100.00
8069;BME280;4077;43.702;24.896;2023-03-20T03:29:35;99705.75;;;2.30;100.00
8069;BME280;4077;43.702;24.896;2023-03-20T03:32:05;99706.28;;;2.23;100.00
8069;BME280;4077;43.702;24.896;2023-03-20T03:34:32;99702.31;;;2.12;100.00
8069;BME280;4077;43.702;24.896;2023-03-20T03:37:06;99698.47;;;2.02;100.00
8069;BME280;4077;43.702;24.896;2023-03-20T03:39:49;99693.09;;;1.96;100.00
8069;BME280;4077;43.702;24.896;2023-03-20T03:44:54;99698.19;;;1.96;100.00
8069;BME280;4077;43.702;24.896;2023-03-20T03:47:30;99710.56;;;2.06;100.00
8069;BME280;4077;43.702;24.896;2023-03-20T03:50:03;99710.56;;;2.06;100.00
8069;BME280;4077;43.702;24.896;2023-03-20T03:52:31;99704.06;;;1.95;100.00
8069;BME280;4077;43.702;24.896;2023-03-20T03:55:19;99699.84;;;1.96;100.00
8069;BME280;4077;43.702;24.896;2023-03-20T03:57:51;99719.47;;;1.98;100.00
8069;BME280;4077;43.702;24.896;2023-03-20T04:00:22;99710.59;;;1.90;100.00
8069;BME280;4077;43.702;24.896;2023-03-20T04:02:52;99717.59;;;1.94;100.00
8069;BME280;4077;43.702;24.896;2023-03-20T04:05:19;99719.16;;;1.92;100.00
8069;BME280;4077;43.702;24.896;2023-03-20T04:07:46;99713.22;;;1.91;100.00
8069;BME280;4077;43.702;24.896;2023-03-20T04:10:13;99713.38;;;1.95;100.00
8069;BME280;4077;43.702;24.896;2023-03-20T04:12:41;99701.94;;;1.86;100.00
8069;BME280;4077;43.702;24.896;2023-03-20T04:15:07;99700.69;;;1.78;100.00
8069;BME280;4077;43.702;24.896;2023-03-20T04:17:33;99713.31;;;1.77;100.00
8069;BME280;4077;43.702;24.896;2023-03-20T04:19:59;99717.41;;;1.73;100.00
8069;BME280;4077;43.702;24.896;2023-03-20T04:22:25;99697.75;;;1.71;100.00
8069;BME280;4077;43.702;24.896;2023-03-20T04:24:51;99713.19;;;1.74;100.00
8069;BME280;4077;43.702;24.896;2023-03-20T04:27:17;99716.53;;;1.73;100.00
8069;BME280;4077;43.702;24.896;2023-03-20T04:29:42;99718.03;;;1.69;100.00
8069;BME280;4077;43.702;24.896;2023-03-20T04:32:09;99712.25;;;1.72;100.00
8069;BME280;4077;43.702;24.896;2023-03-20T04:34:34;99714.00;;;1.73;100.00
8069;BME280;4077;43.702;24.896;2023-03-20T04:37:00;99714.13;;;1.76;100.00
8069;BME280;4077;43.702;24.896;2023-03-20T04:39:26;99709.97;;;1.78;100.00
8069;BME280;4077;43.702;24.896;2023-03-20T04:41:52;99708.09;;;1.74;100.00
8069;BME280;4077;43.702;24.896;2023-03-20T04:44:17;99707.78;;;1.68;100.00
8069;BME280;4077;43.702;24.896;2023-03-20T04:46:43;99714.47;;;1.66;100.00
8069;BME280;4077;43.702;24.896;2023-03-20T04:49:08;99701.47;;;1.59;100.00
8069;BME280;4077;43.702;24.896;2023-03-20T04:51:34;99706.19;;;1.70;100.00
8069;BME280;4077;43.702;24.896;2023-03-20T04:53:59;99709.84;;;1.75;100.00
8069;BME280;4077;43.702;24.896;2023-03-20T04:56:25;99712.50;;;1.94;100.00
8069;BME280;4077;43.702;24.896;2023-03-20T04:58:50;99714.84;;;2.25;100.00
8069;BME280;4077;43.702;24.896;2023-03-20T05:01:16;99712.16;;;2.58;100.00
8069;BME280;4077;43.702;24.896;2023-03-20T05:03:41;99728.94;;;2.72;100.00
8069;BME280;4077;43.702;24.896;2023-03-20T05:06:07;99727.09;;;2.87;100.00
8069;BME280;4077;43.702;24.896;2023-03-20T05:08:32;99723.56;;;2.84;100.00
8069;BME280;4077;43.702;24.896;2023-03-20T05:10:58;99737.22;;;3.04;100.00
8069;BME280;4077;43.702;24.896;2023-03-20T05:13:23;99741.97;;;3.15;100.00
8069;BME280;4077;43.702;24.896;2023-03-20T05:15:48;99750.06;;;3.24;100.00
8069;BME280;4077;43.702;24.896;2023-03-20T05:18:14;99746.81;;;3.28;100.00
8069;BME280;4077;43.702;24.896;2023-03-20T05:20:40;99758.25;;;3.37;100.00
8069;BME280;4077;43.702;24.896;2023-03-20T05:23:05;99763.13;;;3.32;100.00
8069;BME280;4077;43.702;24.896;2023-03-20T05:25:31;99761.50;;;3.15;100.00
8069;BME280;4077;43.702;24.896;2023-03-20T05:27:56;99753.09;;;2.98;100.00
8069;BME280;4077;43.702;24.896;2023-03-20T05:30:22;99751.69;;;3.05;100.00
8069;BME280;4077;43.702;24.896;2023-03-20T05:32:51;99750.59;;;3.17;100.00
8069;BME280;4077;43.702;24.896;2023-03-20T05:35:17;99757.16;;;3.12;100.00
8069;BME280;4077;43.702;24.896;2023-03-20T05:37:42;99746.03;;;3.29;100.00
8069;BME280;4077;43.702;24.896;2023-03-20T05:40:11;99757.56;;;3.60;100.00
8069;BME280;4077;43.702;24.896;2023-03-20T05:42:37;99776.41;;;3.83;100.00
8069;BME280;4077;43.702;24.896;2023-03-20T05:45:03;99778.22;;;4.05;100.00
8069;BME280;4077;43.702;24.896;2023-03-20T05:47:28;99787.69;;;4.28;100.00
8069;BME280;4077;43.702;24.896;2023-03-20T05:49:54;99779.47;;;4.56;100.00
8069;BME280;4077;43.702;24.896;2023-03-20T05:52:19;99782.47;;;4.46;100.00
8069;BME280;4077;43.702;24.896;2023-03-20T05:54:45;99779.34;;;4.97;100.00
8069;BME280;4077;43.702;24.896;2023-03-20T05:57:11;99790.66;;;5.26;100.00
8069;BME280;4077;43.702;24.896;2023-03-20T05:59:37;99788.75;;;5.42;100.00
8069;BME280;4077;43.702;24.896;2023-03-20T06:02:03;99773.69;;;5.52;100.00
8069;BME280;4077;43.702;24.896;2023-03-20T06:04:28;99787.97;;;5.69;100.00
8069;BME280;4077;43.702;24.896;2023-03-20T06:06:54;99789.50;;;5.64;100.00
8069;BME280;4077;43.702;24.896;2023-03-20T06:09:19;99791.63;;;5.75;100.00
8069;BME280;4077;43.702;24.896;2023-03-20T06:11:45;99801.59;;;6.16;100.00
8069;BME280;4077;43.702;24.896;2023-03-20T06:14:10;99811.31;;;7.05;100.00
8069;BME280;4077;43.702;24.896;2023-03-20T06:16:36;99826.09;;;8.34;100.00
8069;BME280;4077;43.702;24.896;2023-03-20T06:19:01;99840.91;;;9.51;100.00
8069;BME280;4077;43.702;24.896;2023-03-20T06:21:27;99836.78;;;10.49;100.00
8069;BME280;4077;43.702;24.896;2023-03-20T06:23:52;99856.59;;;11.60;90.15
8069;BME280;4077;43.702;24.896;2023-03-20T06:26:19;99863.09;;;12.82;77.15
8069;BME280;4077;43.702;24.896;2023-03-20T06:28:45;99869.84;;;13.87;66.89
8069;BME280;4077;43.702;24.896;2023-03-20T06:31:10;99874.38;;;14.47;62.79
8069;BME280;4077;43.702;24.896;2023-03-20T06:33:36;99871.81;;;14.93;61.06
8069;BME280;4077;43.702;24.896;2023-03-20T06:36:03;99876.97;;;15.28;57.37
8069;BME280;4077;43.702;24.896;2023-03-20T06:38:28;99885.63;;;15.37;56.75
8069;BME280;4077;43.702;24.896;2023-03-20T06:40:54;99872.66;;;14.57;58.37
8069;BME280;4077;43.702;24.896;2023-03-20T06:43:19;99875.13;;;14.20;59.54
8069;BME280;4077;43.702;24.896;2023-03-20T06:45:45;99873.25;;;13.78;59.81
8069;BME280;4077;43.702;24.896;2023-03-20T06:48:11;99866.06;;;13.27;60.29
8069;BME280;4077;43.702;24.896;2023-03-20T06:50:36;99860.53;;;12.84;62.63
8069;BME280;4077;43.702;24.896;2023-03-20T06:53:02;99855.25;;;12.72;63.38
8069;BME280;4077;43.702;24.896;2023-03-20T06:55:28;99852.59;;;12.64;63.98
8069;BME280;4077;43.702;24.896;2023-03-20T06:57:53;99853.47;;;12.68;63.88
8069;BME280;4077;43.702;24.896;2023-03-20T07:00:19;99853.56;;;12.80;63.60
8069;BME280;4077;43.702;24.896;2023-03-20T07:02:45;99841.97;;;13.46;63.70
8069;BME280;4077;43.702;24.896;2023-03-20T07:05:11;99841.41;;;14.31;61.87
8069;BME280;4077;43.702;24.896;2023-03-20T07:07:37;99848.41;;;15.07;59.58
8069;BME280;4077;43.702;24.896;2023-03-20T07:10:03;99849.13;;;15.81;56.51
8069;BME280;4077;43.702;24.896;2023-03-20T07:12:29;99848.81;;;16.42;54.79
8069;BME280;4077;43.702;24.896;2023-03-20T07:14:54;99851.66;;;15.95;53.66
8069;BME280;4077;43.702;24.896;2023-03-20T07:17:20;99852.69;;;15.39;54.81
8069;BME280;4077;43.702;24.896;2023-03-20T07:19:47;99850.16;;;15.00;55.62
8069;BME280;4077;43.702;24.896;2023-03-20T07:22:23;99854.50;;;14.69;56.01
8069;BME280;4077;43.702;24.896;2023-03-20T07:24:49;99859.59;;;14.39;56.70
8069;BME280;4077;43.702;24.896;2023-03-20T07:27:15;99861.31;;;14.31;57.20
8069;BME280;4077;43.702;24.896;2023-03-20T07:29:40;99869.13;;;14.32;57.24
8069;BME280;4077;43.702;24.896;2023-03-20T07:32:06;99855.34;;;14.48;58.77
8069;BME280;4077;43.702;24.896;2023-03-20T07:34:31;99866.59;;;14.61;56.46
8069;BME280;4077;43.702;24.896;2023-03-20T07:36:56;99858.78;;;14.54;57.00
8069;BME280;4077;43.702;24.896;2023-03-20T07:39:22;99865.75;;;14.62;57.16
8069;BME280;4077;43.702;24.896;2023-03-20T07:41:48;99869.19;;;14.66;57.31
8069;BME280;4077;43.702;24.896;2023-03-20T07:44:13;99875.28;;;14.69;57.62
8069;BME280;4077;43.702;24.896;2023-03-20T07:46:39;99873.53;;;14.68;58.31
8069;BME280;4077;43.702;24.896;2023-03-20T07:49:05;99872.69;;;14.71;58.18
8069;BME280;4077;43.702;24.896;2023-03-20T07:51:32;99865.72;;;14.53;58.85
8069;BME280;4077;43.702;24.896;2023-03-20T07:53:57;99873.53;;;14.50;59.07
8069;BME280;4077;43.702;24.896;2023-03-20T07:56:23;99862.19;;;14.23;59.74
8069;BME280;4077;43.702;24.896;2023-03-20T07:58:48;99865.53;;;14.00;61.12
8069;BME280;4077;43.702;24.896;2023-03-20T08:01:15;99860.44;;;14.15;61.41
8069;BME280;4077;43.702;24.896;2023-03-20T08:03:40;99856.91;;;13.98;61.43
8069;BME280;4077;43.702;24.896;2023-03-20T08:06:06;99862.06;;;13.88;61.54
8069;BME280;4077;43.702;24.896;2023-03-20T08:08:34;99853.41;;;13.92;62.02
8069;BME280;4077;43.702;24.896;2023-03-20T08:11:00;99849.22;;;14.30;61.06
8069;BME280;4077;43.702;24.896;2023-03-20T08:13:26;99848.34;;;14.31;60.40
8069;BME280;4077;43.702;24.896;2023-03-20T08:15:52;99855.28;;;14.36;60.73
8069;BME280;4077;43.702;24.896;2023-03-20T08:18:17;99857.00;;;14.33;60.71
8069;BME280;4077;43.702;24.896;2023-03-20T08:20:44;99838.84;;;14.36;61.34
8069;BME280;4077;43.702;24.896;2023-03-20T08:23:10;99856.13;;;14.29;60.28
8069;BME280;4077;43.702;24.896;2023-03-20T08:25:36;99855.22;;;14.15;60.53
8069;BME280;4077;43.702;24.896;2023-03-20T08:28:02;99850.88;;;14.09;61.11
8069;BME280;4077;43.702;24.896;2023-03-20T08:30:28;99853.47;;;14.00;61.63
8069;BME280;4077;43.702;24.896;2023-03-20T08:32:53;99853.41;;;13.92;62.19
8069;BME280;4077;43.702;24.896;2023-03-20T08:35:19;99854.28;;;13.93;61.39
8069;BME280;4077;43.702;24.896;2023-03-20T08:37:44;99849.09;;;13.90;62.16
8069;BME280;4077;43.702;24.896;2023-03-20T08:40:10;99849.13;;;14.02;63.23
8069;BME280;4077;43.702;24.896;2023-03-20T08:42:36;99856.97;;;14.23;62.68
8069;BME280;4077;43.702;24.896;2023-03-20T08:45:04;99857.94;;;14.50;61.36
8069;BME280;4077;43.702;24.896;2023-03-20T08:47:31;99855.34;;;14.56;61.67
8069;BME280;4077;43.702;24.896;2023-03-20T08:49:57;99843.22;;;14.70;61.34
8069;BME280;4077;43.702;24.896;2023-03-20T08:52:22;99848.44;;;14.96;61.21
8069;BME280;4077;43.702;24.896;2023-03-20T08:54:48;99857.06;;;15.12;60.26
8069;BME280;4077;43.702;24.896;2023-03-20T08:57:13;99857.94;;;15.20;59.83
8069;BME280;4077;43.702;24.896;2023-03-20T08:59:39;99863.09;;;15.45;60.07
8069;BME280;4077;43.702;24.896;2023-03-20T09:02:04;99857.00;;;15.49;60.26
8069;BME280;4077;43.702;24.896;2023-03-20T09:04:30;99867.38;;;15.55;60.06
8069;BME280;4077;43.702;24.896;2023-03-20T09:06:55;99861.31;;;15.59;60.20
8069;BME280;4077;43.702;24.896;2023-03-20T09:09:21;99859.56;;;15.70;59.95
8069;BME280;4077;43.702;24.896;2023-03-20T09:11:53;99848.25;;;15.77;58.89
8069;BME280;4077;43.702;24.896;2023-03-20T09:14:19;99849.97;;;15.83;58.73
8069;BME280;4077;43.702;24.896;2023-03-20T09:16:44;99860.41;;;15.81;57.61
8069;BME280;4077;43.702;24.896;2023-03-20T09:19:10;99850.84;;;15.86;56.32
8069;BME280;4077;43.702;24.896;2023-03-20T09:21:35;99839.53;;;15.94;56.86
8069;BME280;4077;43.702;24.896;2023-03-20T09:24:01;99844.69;;;16.03;58.60
8069;BME280;4077;43.702;24.896;2023-03-20T09:26:26;99855.84;;;16.23;58.26
8069;BME280;4077;43.702;24.896;2023-03-20T09:28:52;99847.16;;;16.29;58.06
8069;BME280;4077;43.702;24.896;2023-03-20T09:31:17;99836.66;;;16.39;58.54
8069;BME280;4077;43.702;24.896;2023-03-20T09:33:42;99845.19;;;16.60;58.78
8069;BME280;4077;43.702;24.896;2023-03-20T09:36:08;99844.97;;;16.92;57.59
8069;BME280;4077;43.702;24.896;2023-03-20T09:38:36;99846.38;;;17.28;56.90
8069;BME280;4077;43.702;24.896;2023-03-20T09:41:02;99845.06;;;17.67;55.90
8069;BME280;4077;43.702;24.896;2023-03-20T09:48:48;99852.84;;;18.41;54.43
8069;BME280;4077;43.702;24.896;2023-03-20T09:53:56;99846.81;;;18.36;55.38
8069;BME280;4077;43.702;24.896;2023-03-20T09:56:25;99835.84;;;18.10;55.89
8069;BME280;4077;43.702;24.896;2023-03-20T09:58:54;99828.16;;;18.00;56.27
8069;BME280;4077;43.702;24.896;2023-03-20T10:01:23;99828.09;;;18.03;57.07
8069;BME280;4077;43.702;24.896;2023-03-20T10:03:59;99818.66;;;17.95;56.95
8069;BME280;4077;43.702;24.896;2023-03-20T10:06:25;99816.09;;;17.90;55.93
8069;BME280;4077;43.702;24.896;2023-03-20T10:08:51;99810.28;;;17.67;56.99
8069;BME280;4077;43.702;24.896;2023-03-20T10:17:37;99798.09;;;17.66;57.08
8069;BME280;4077;43.702;24.896;2023-03-20T10:20:32;99800.41;;;17.90;55.76
8069;BME280;4077;43.702;24.896;2023-03-20T10:23:15;99788.97;;;18.00;54.83
8069;BME280;4077;43.702;24.896;2023-03-20T10:26:00;99795.88;;;18.04;55.79
8069;BME280;4077;43.702;24.896;2023-03-20T10:28:37;99795.19;;;17.90;54.69
8069;BME280;4077;43.702;24.896;2023-03-20T10:31:21;99789.06;;;17.94;55.85
8069;BME280;4077;43.702;24.896;2023-03-20T10:34:19;99787.34;;;17.90;55.46
8069;BME280;4077;43.702;24.896;2023-03-20T10:37:03;99783.88;;;17.90;55.21
8069;BME280;4077;43.702;24.896;2023-03-20T10:42:17;99763.91;;;17.87;56.51
8069;BME280;4077;43.702;24.896;2023-03-20T10:44:58;99771.47;;;18.07;54.60
8069;BME280;4077;43.702;24.896;2023-03-20T10:47:27;99774.91;;;18.09;53.44
8069;BME280;4077;43.702;24.896;2023-03-20T10:50:06;99774.50;;;18.37;54.17
8069;BME280;4077;43.702;24.896;2023-03-20T10:52:38;99764.88;;;18.40;53.84
8069;BME280;4077;43.702;24.896;2023-03-20T10:55:11;99766.75;;;18.30;52.70
8069;BME280;4077;43.702;24.896;2023-03-20T10:57:43;99763.38;;;18.25;53.05
8069;BME280;4077;43.702;24.896;2023-03-20T11:00:20;99758.13;;;18.24;52.97
8069;BME280;4077;43.702;24.896;2023-03-20T11:02:46;99747.59;;;18.30;53.28
8069;BME280;4077;43.702;24.896;2023-03-20T11:05:41;99755.00;;;18.56;52.51
8069;BME280;4077;43.702;24.896;2023-03-20T11:08:11;99752.31;;;18.61;51.99
8069;BME280;4077;43.702;24.896;2023-03-20T11:10:39;99748.91;;;18.55;51.54
8069;BME280;4077;43.702;24.896;2023-03-20T11:15:44;99735.19;;;18.43;50.14
8069;BME280;4077;43.702;24.896;2023-03-20T11:18:12;99725.34;;;18.57;51.41
8069;BME280;4077;43.702;24.896;2023-03-20T11:20:48;99727.97;;;18.57;50.00
8069;BME280;4077;43.702;24.896;2023-03-20T11:23:17;99720.19;;;18.54;49.56
8069;BME280;4077;43.702;24.896;2023-03-20T11:25:57;99722.78;;;18.55;49.60
8069;BME280;4077;43.702;24.896;2023-03-20T11:28:35;99714.16;;;18.50;49.67
8069;BME280;4077;43.702;24.896;2023-03-20T11:33:30;99702.78;;;18.53;50.15
8069;BME280;4077;43.702;24.896;2023-03-20T11:35:57;99701.22;;;18.43;49.72
8069;BME280;4077;43.702;24.896;2023-03-20T11:38:23;99695.19;;;18.39;50.01
8069;BME280;4077;43.702;24.896;2023-03-20T11:40:50;99687.25;;;18.44;50.49
8069;BME280;4077;43.702;24.896;2023-03-20T11:43:24;99695.22;;;18.36;51.05
8069;BME280;4077;43.702;24.896;2023-03-20T11:45:58;99680.56;;;18.27;50.93
8069;BME280;4077;43.702;24.896;2023-03-20T11:48:38;99682.38;;;18.22;50.94
8069;BME280;4077;43.702;24.896;2023-03-20T11:51:12;99682.38;;;18.22;51.17
8069;BME280;4077;43.702;24.896;2023-03-20T11:54:02;99678.28;;;18.08;50.79
8069;BME280;4077;43.702;24.896;2023-03-20T11:56:28;99685.81;;;18.24;50.62
8069;BME280;4077;43.702;24.896;2023-03-20T11:58:58;99676.41;;;18.16;50.99
8069;BME280;4077;43.702;24.896;2023-03-20T12:01:27;99679.72;;;18.27;50.62
8069;BME280;4077;43.702;24.896;2023-03-20T12:06:27;99673.28;;;18.46;50.24
8069;BME280;4077;43.702;24.896;2023-03-20T12:09:04;99668.16;;;18.39;49.65
8069;BME280;4077;43.702;24.896;2023-03-20T12:14:15;99661.31;;;18.31;50.08
8069;BME280;4077;43.702;24.896;2023-03-20T12:16:42;99658.84;;;18.24;49.78
8069;BME280;4077;43.702;24.896;2023-03-20T12:19:13;99656.22;;;18.25;48.96
8069;BME280;4077;43.702;24.896;2023-03-20T12:21:46;99661.31;;;18.31;49.02
8069;BME280;4077;43.702;24.896;2023-03-20T12:25:19;99647.59;;;18.20;47.51
8069;BME280;4077;43.702;24.896;2023-03-20T12:27:37;99647.13;;;17.95;48.02
8069;BME280;4077;43.702;24.896;2023-03-20T12:35:25;99627.56;;;18.18;46.82
8069;BME280;4077;43.702;24.896;2023-03-20T12:37:51;99625.53;;;18.35;46.87
8069;BME280;4077;43.702;24.896;2023-03-20T12:40:18;99621.81;;;18.48;46.89
8069;BME280;4077;43.702;24.896;2023-03-20T12:45:53;99609.34;;;18.63;47.03
8069;BME280;4077;43.702;24.896;2023-03-20T12:59:32;99611.84;;;18.70;46.76
8069;BME280;4077;43.702;24.896;2023-03-20T13:05:16;99597.06;;;18.69;46.52
8069;BME280;4077;43.702;24.896;2023-03-20T13:10:22;99593.84;;;18.53;46.13
8069;BME280;4077;43.702;24.896;2023-03-20T13:13:05;99588.53;;;18.56;46.00
8069;BME280;4077;43.702;24.896;2023-03-20T13:24:31;99571.25;;;18.49;46.39
8069;BME280;4077;43.702;24.896;2023-03-20T13:29:58;99565.63;;;18.71;46.34
8069;BME280;4077;43.702;24.896;2023-03-20T13:32:36;99564.56;;;18.79;46.63
8069;BME280;4077;43.702;24.896;2023-03-20T13:35:23;99567.91;;;18.88;46.23
8069;BME280;4077;43.702;24.896;2023-03-20T13:38:16;99571.22;;;18.96;45.18
8069;BME280;4077;43.702;24.896;2023-03-20T13:40:44;99566.78;;;18.99;45.22
8069;BME280;4077;43.702;24.896;2023-03-20T13:43:27;99559.91;;;18.95;44.56
8069;BME280;4077;43.702;24.896;2023-03-20T13:46:06;99565.00;;;19.00;44.19
8069;BME280;4077;43.702;24.896;2023-03-20T13:48:43;99556.31;;;18.99;43.81
8069;BME280;4077;43.702;24.896;2023-03-20T14:01:42;99553.06;;;18.88;41.68
8069;BME280;4077;43.702;24.896;2023-03-20T14:04:21;99541.16;;;18.75;42.21
8069;BME280;4077;43.702;24.896;2023-03-20T14:06:52;99535.91;;;18.75;42.12
8069;BME280;4077;43.702;24.896;2023-03-20T14:11:53;99528.34;;;18.61;42.41
8069;BME280;4077;43.702;24.896;2023-03-20T14:14:47;99536.19;;;18.59;42.91
8069;BME280;4077;43.702;24.896;2023-03-20T14:19:41;99520.81;;;18.44;42.79
8069;BME280;4077;43.702;24.896;2023-03-20T14:22:15;99498.41;;;18.31;41.92
8069;BME280;4077;43.702;24.896;2023-03-20T14:24:56;99510.72;;;18.27;40.64
8069;BME280;4077;43.702;24.896;2023-03-20T14:27:26;99494.41;;;18.15;40.58
8069;BME280;4077;43.702;24.896;2023-03-20T14:29:51;99507.50;;;18.12;40.38
8069;BME280;4077;43.702;24.896;2023-03-20T14:35:37;99506.69;;;18.10;40.77
8069;BME280;4077;43.702;24.896;2023-03-20T14:40:28;99500.78;;;18.00;39.38
8069;BME280;4077;43.702;24.896;2023-03-20T14:43:25;99498.31;;;17.91;40.62
8069;BME280;4077;43.702;24.896;2023-03-20T14:46:01;99495.91;;;17.80;39.76
8069;BME280;4077;43.702;24.896;2023-03-20T14:48:34;99495.97;;;17.77;40.97
8069;BME280;4077;43.702;24.896;2023-03-20T14:51:36;99491.69;;;17.73;39.79
8069;BME280;4077;43.702;24.896;2023-03-20T14:56:48;99480.50;;;17.65;39.82
8069;BME280;4077;43.702;24.896;2023-03-20T14:59:16;99482.22;;;17.66;40.40
8069;BME280;4077;43.702;24.896;2023-03-20T15:01:58;99477.00;;;17.66;40.46
8069;BME280;4077;43.702;24.896;2023-03-20T15:04:38;99470.06;;;17.65;41.29
8069;BME280;4077;43.702;24.896;2023-03-20T15:09:48;99475.47;;;17.53;41.19
8069;BME280;4077;43.702;24.896;2023-03-20T15:12:22;99475.66;;;17.43;41.40
8069;BME280;4077;43.702;24.896;2023-03-20T15:14:56;99481.00;;;17.34;41.58
8069;BME280;4077;43.702;24.896;2023-03-20T15:17:25;99475.88;;;17.28;41.32
8069;BME280;4077;43.702;24.896;2023-03-20T15:20:00;99456.94;;;17.15;41.51
8069;BME280;4077;43.702;24.896;2023-03-20T15:22:26;99457.97;;;17.05;41.49
8069;BME280;4077;43.702;24.896;2023-03-20T15:24:54;99471.78;;;17.12;41.37
8069;BME280;4077;43.702;24.896;2023-03-20T15:27:20;99471.94;;;17.03;42.08
8069;BME280;4077;43.702;24.896;2023-03-20T15:29:50;99472.81;;;17.02;42.53